sensor_id;sensor_type;location;lat;lon;timestamp;pressure;altitude;pressure_sealevel;temperature;humidity
42771;BME280;28426;42.872;25.314;2023-02-21T00:01:29;97184.19;;;0.85;72.46
42771;BME280;28426;42.872;25.314;2023-02-21T00:04:12;97173.22;;;0.80;75.22
42771;BME280;28426;42.872;25.314;2023-02-21T00:06:55;97161.97;;;0.89;73.91
42771;BME280;28426;42.872;25.314;2023-02-21T00:09:40;97162.22;;;0.86;72.25
42771;BME280;28426;42.872;25.314;2023-02-21T00:12:23;97160.69;;;0.72;72.34
42771;BME280;28426;42.872;25.314;2023-02-21T00:15:07;97146.28;;;0.55;73.51
42771;BME280;28426;42.872;25.314;2023-02-21T00:17:50;97154.25;;;0.65;75.82
42771;BME280;28426;42.872;25.314;2023-02-21T00:20:32;97156.28;;;0.73;73.96
42771;BME280;28426;42.872;25.314;2023-02-21T00:23:15;97151.63;;;0.65;72.37
42771;BME280;28426;42.872;25.314;2023-02-21T00:26:01;97155.94;;;0.55;75.97
42771;BME280;28426;42.872;25.314;2023-02-21T00:28:44;97156.75;;;0.67;76.41
42771;BME280;28426;42.872;25.314;2023-02-21T00:31:29;97142.41;;;0.71;74.15
42771;BME280;28426;42.872;25.314;2023-02-21T00:34:11;97139.78;;;0.71;72.73
42771;BME280;28426;42.872;25.314;2023-02-21T00:36:57;97130.41;;;0.57;74.15
42771;BME280;28426;42.872;25.314;2023-02-21T00:39:40;97136.59;;;0.56;77.09
42771;BME280;28426;42.872;25.314;2023-02-21T00:42:25;97132.31;;;0.66;76.04
42771;BME280;28426;42.872;25.314;2023-02-21T00:45:09;97130.50;;;0.67;73.87
42771;BME280;28426;42.872;25.314;2023-02-21T00:47:52;97131.22;;;0.57;74.09
42771;BME280;28426;42.872;25.314;2023-02-21T00:50:35;97124.44;;;0.43;75.56
42771;BME280;28426;42.872;25.314;2023-02-21T00:53:18;97125.84;;;0.47;77.71
42771;BME280;28426;42.872;25.314;2023-02-21T00:56:01;97121.44;;;0.59;76.26
42771;BME280;28426;42.872;25.314;2023-02-21T00:58:46;97118.31;;;0.77;75.48
42771;BME280;28426;42.872;25.314;2023-02-21T01:01:29;97112.78;;;0.91;74.51
42771;BME280;28426;42.872;25.314;2023-02-21T01:04:12;97110.03;;;0.93;73.44
42771;BME280;28426;42.872;25.314;2023-02-21T01:06:55;97103.13;;;0.81;73.43
42771;BME280;28426;42.872;25.314;2023-02-21T01:09:38;97111.13;;;0.68;74.61
42771;BME280;28426;42.872;25.314;2023-02-21T01:12:21;97100.22;;;0.51;75.84
42771;BME280;28426;42.872;25.314;2023-02-21T01:15:07;97089.31;;;0.67;76.73
42771;BME280;28426;42.872;25.314;2023-02-21T01:17:50;97089.41;;;0.77;74.03
42771;BME280;28426;42.872;25.314;2023-02-21T01:20:34;97080.34;;;0.70;74.22
42771;BME280;28426;42.872;25.314;2023-02-21T01:23:17;97078.16;;;0.86;76.63
42771;BME280;28426;42.872;25.314;2023-02-21T01:26:00;97082.78;;;0.94;74.45
42771;BME280;28426;42.872;25.314;2023-02-21T01:28:43;97078.75;;;0.90;72.91
42771;BME280;28426;42.872;25.314;2023-02-21T01:31:28;97066.59;;;0.77;73.98
42771;BME280;28426;42.872;25.314;2023-02-21T01:34:12;97064.13;;;0.64;75.54
42771;BME280;28426;42.872;25.314;2023-02-21T01:36:55;97052.78;;;0.64;77.45
42771;BME280;28426;42.872;25.314;2023-02-21T01:39:38;97054.75;;;0.83;75.88
42771;BME280;28426;42.872;25.314;2023-02-21T01:42:21;97053.97;;;1.04;74.96
42771;BME280;28426;42.872;25.314;2023-02-21T01:48:20;97038.88;;;1.17;71.78
42771;BME280;28426;42.872;25.314;2023-02-21T01:51:05;97042.94;;;1.10;73.03
42771;BME280;28426;42.872;25.314;2023-02-21T01:53:50;97041.09;;;1.01;76.79
42771;BME280;28426;42.872;25.314;2023-02-21T01:56:34;97047.13;;;1.13;75.14
42771;BME280;28426;42.872;25.314;2023-02-21T01:59:21;97043.41;;;1.15;73.19
42771;BME280;28426;42.872;25.314;2023-02-21T02:02:21;97035.69;;;1.02;73.67
42771;BME280;28426;42.872;25.314;2023-02-21T02:05:10;97028.94;;;0.88;74.83
42771;BME280;28426;42.872;25.314;2023-02-21T02:07:54;97028.69;;;0.91;75.65
42771;BME280;28426;42.872;25.314;2023-02-21T02:10:39;97024.09;;;1.05;74.73
42771;BME280;28426;42.872;25.314;2023-02-21T02:13:51;97025.53;;;1.09;72.44
42771;BME280;28426;42.872;25.314;2023-02-21T02:16:31;97028.16;;;1.09;76.09
42771;BME280;28426;42.872;25.314;2023-02-21T02:19:24;97034.50;;;1.28;74.20
42771;BME280;28426;42.872;25.314;2023-02-21T02:22:28;97022.69;;;1.43;72.09
42771;BME280;28426;42.872;25.314;2023-02-21T02:25:14;97010.91;;;1.38;72.56
42771;BME280;28426;42.872;25.314;2023-02-21T02:27:53;97008.69;;;1.22;73.61
42771;BME280;28426;42.872;25.314;2023-02-21T02:30:51;97007.81;;;1.33;75.16
42771;BME280;28426;42.872;25.314;2023-02-21T02:36:18;97010.56;;;1.52;71.19
42771;BME280;28426;42.872;25.314;2023-02-21T02:38:57;97001.41;;;1.47;72.58
42771;BME280;28426;42.872;25.314;2023-02-21T02:41:36;97005.69;;;1.48;74.03
42771;BME280;28426;42.872;25.314;2023-02-21T02:44:14;97004.66;;;1.60;72.69
42771;BME280;28426;42.872;25.314;2023-02-21T02:46:48;96999.25;;;1.62;71.49
42771;BME280;28426;42.872;25.314;2023-02-21T02:49:21;96998.94;;;1.55;71.40
42771;BME280;28426;42.872;25.314;2023-02-21T02:52:02;96993.31;;;1.38;73.01
42771;BME280;28426;42.872;25.314;2023-02-21T02:54:33;96996.13;;;1.47;73.23
42771;BME280;28426;42.872;25.314;2023-02-21T02:57:05;96994.38;;;1.57;72.85
42771;BME280;28426;42.872;25.314;2023-02-21T02:59:43;96995.34;;;1.56;71.76
42771;BME280;28426;42.872;25.314;2023-02-21T03:02:35;96999.44;;;1.49;72.61
42771;BME280;28426;42.872;25.314;2023-02-21T03:05:27;97002.09;;;1.49;75.20
42771;BME280;28426;42.872;25.314;2023-02-21T03:08:07;97010.75;;;1.61;73.50
42771;BME280;28426;42.872;25.314;2023-02-21T03:10:50;97001.88;;;1.62;72.08
42771;BME280;28426;42.872;25.314;2023-02-21T03:13:32;97013.31;;;1.51;71.93
42771;BME280;28426;42.872;25.314;2023-02-21T03:16:10;97015.19;;;1.39;73.59
42771;BME280;28426;42.872;25.314;2023-02-21T03:18:47;97005.50;;;1.39;74.16
42771;BME280;28426;42.872;25.314;2023-02-21T03:21:21;97011.38;;;1.53;72.82
42771;BME280;28426;42.872;25.314;2023-02-21T03:23:57;97015.41;;;1.57;71.32
42771;BME280;28426;42.872;25.314;2023-02-21T03:26:32;97025.63;;;1.50;72.60
42771;BME280;28426;42.872;25.314;2023-02-21T03:29:23;97029.53;;;1.56;74.30
42771;BME280;28426;42.872;25.314;2023-02-21T03:31:55;97025.03;;;1.68;73.07
42771;BME280;28426;42.872;25.314;2023-02-21T03:34:27;97035.88;;;1.75;71.06
42771;BME280;28426;42.872;25.314;2023-02-21T03:36:57;97024.47;;;1.64;71.28
42771;BME280;28426;42.872;25.314;2023-02-21T03:39:31;97023.84;;;1.51;72.74
42771;BME280;28426;42.872;25.314;2023-02-21T03:42:02;97024.63;;;1.41;74.10
42771;BME280;28426;42.872;25.314;2023-02-21T03:44:32;97021.13;;;1.62;73.10
42771;BME280;28426;42.872;25.314;2023-02-21T03:47:04;97032.72;;;1.60;71.83
42771;BME280;28426;42.872;25.314;2023-02-21T03:49:35;97022.69;;;1.43;72.81
42771;BME280;28426;42.872;25.314;2023-02-21T03:52:06;97017.09;;;1.37;77.23
42771;BME280;28426;42.872;25.314;2023-02-21T03:54:42;97016.72;;;1.41;74.90
42771;BME280;28426;42.872;25.314;2023-02-21T03:57:16;97016.38;;;1.56;74.42
42771;BME280;28426;42.872;25.314;2023-02-21T03:59:49;97018.66;;;1.70;73.08
42771;BME280;28426;42.872;25.314;2023-02-21T04:02:20;97006.41;;;1.81;71.70
42771;BME280;28426;42.872;25.314;2023-02-21T04:04:51;97006.78;;;1.76;70.90
42771;BME280;28426;42.872;25.314;2023-02-21T04:07:24;97012.28;;;1.63;71.88
42771;BME280;28426;42.872;25.314;2023-02-21T04:09:57;97007.34;;;1.49;73.39
42771;BME280;28426;42.872;25.314;2023-02-21T04:12:37;97005.19;;;1.54;74.05
42771;BME280;28426;42.872;25.314;2023-02-21T04:15:09;96996.50;;;1.63;73.19
42771;BME280;28426;42.872;25.314;2023-02-21T04:17:40;96976.38;;;1.52;71.29
42771;BME280;28426;42.872;25.314;2023-02-21T04:20:10;96990.34;;;1.53;72.40
42771;BME280;28426;42.872;25.314;2023-02-21T04:22:47;96995.88;;;1.50;75.33
42771;BME280;28426;42.872;25.314;2023-02-21T04:25:32;97002.00;;;1.60;73.66
42771;BME280;28426;42.872;25.314;2023-02-21T04:28:08;96996.63;;;1.62;72.37
42771;BME280;28426;42.872;25.314;2023-02-21T04:30:39;96993.38;;;1.48;72.64
42771;BME280;28426;42.872;25.314;2023-02-21T04:33:10;96991.91;;;1.34;73.41
42771;BME280;28426;42.872;25.314;2023-02-21T04:35:41;96991.03;;;1.24;77.32
42771;BME280;28426;42.872;25.314;2023-02-21T04:38:21;97005.06;;;1.34;75.58
42771;BME280;28426;42.872;25.314;2023-02-21T04:40:54;97000.75;;;1.33;73.75
42771;BME280;28426;42.872;25.314;2023-02-21T04:43:25;97005.25;;;1.21;73.31
42771;BME280;28426;42.872;25.314;2023-02-21T04:45:56;97000.19;;;1.08;74.98
42771;BME280;28426;42.872;25.314;2023-02-21T04:48:26;97000.00;;;1.00;77.93
42771;BME280;28426;42.872;25.314;2023-02-21T04:50:57;96998.38;;;1.09;77.22
42771;BME280;28426;42.872;25.314;2023-02-21T04:53:41;97005.91;;;1.13;74.89
42771;BME280;28426;42.872;25.314;2023-02-21T04:56:16;96992.81;;;1.02;74.83
42771;BME280;28426;42.872;25.314;2023-02-21T04:58:47;96981.00;;;0.96;78.98
42771;BME280;28426;42.872;25.314;2023-02-21T05:01:19;96983.72;;;1.06;77.69
42771;BME280;28426;42.872;25.314;2023-02-21T05:03:50;96987.50;;;1.13;74.69
42771;BME280;28426;42.872;25.314;2023-02-21T05:06:22;96981.41;;;1.13;73.96
42771;BME280;28426;42.872;25.314;2023-02-21T05:08:53;96995.31;;;1.03;74.49
42771;BME280;28426;42.872;25.314;2023-02-21T05:11:26;96984.72;;;0.94;75.80
42771;BME280;28426;42.872;25.314;2023-02-21T05:13:57;96990.63;;;1.07;76.67
42771;BME280;28426;42.872;25.314;2023-02-21T05:16:27;96989.63;;;1.20;75.15
42771;BME280;28426;42.872;25.314;2023-02-21T05:18:58;96984.34;;;1.20;77.02
42771;BME280;28426;42.872;25.314;2023-02-21T05:21:33;96984.16;;;1.33;76.27
42771;BME280;28426;42.872;25.314;2023-02-21T05:24:05;96984.47;;;1.39;74.08
42771;BME280;28426;42.872;25.314;2023-02-21T05:26:39;96990.81;;;1.37;73.27
42771;BME280;28426;42.872;25.314;2023-02-21T05:29:09;96989.38;;;1.23;73.53
42771;BME280;28426;42.872;25.314;2023-02-21T05:31:40;96991.28;;;1.21;77.28
42771;BME280;28426;42.872;25.314;2023-02-21T05:34:11;96989.81;;;1.28;76.11
42771;BME280;28426;42.872;25.314;2023-02-21T05:36:42;96995.25;;;1.36;75.64
42771;BME280;28426;42.872;25.314;2023-02-21T05:39:12;96990.19;;;1.45;74.96
42771;BME280;28426;42.872;25.314;2023-02-21T05:41:50;97002.56;;;1.54;74.66
42771;BME280;28426;42.872;25.314;2023-02-21T05:44:20;96996.50;;;1.63;74.37
42771;BME280;28426;42.872;25.314;2023-02-21T05:46:51;96985.19;;;1.73;73.85
42771;BME280;28426;42.872;25.314;2023-02-21T05:49:22;96994.91;;;1.82;73.75
42771;BME280;28426;42.872;25.314;2023-02-21T05:51:54;96992.59;;;1.89;73.56
42771;BME280;28426;42.872;25.314;2023-02-21T05:54:25;96995.38;;;1.97;73.51
42771;BME280;28426;42.872;25.314;2023-02-21T05:56:58;96992.22;;;2.03;72.85
42771;BME280;28426;42.872;25.314;2023-02-21T05:59:29;96994.31;;;2.09;73.02
42771;BME280;28426;42.872;25.314;2023-02-21T06:01:59;97001.81;;;2.14;72.71
42771;BME280;28426;42.872;25.314;2023-02-21T06:04:30;96989.31;;;2.16;72.17
42771;BME280;28426;42.872;25.314;2023-02-21T06:07:00;96998.38;;;2.24;72.03
42771;BME280;28426;42.872;25.314;2023-02-21T06:09:31;97001.56;;;2.27;71.70
42771;BME280;28426;42.872;25.314;2023-02-21T06:12:05;96999.38;;;2.32;71.79
42771;BME280;28426;42.872;25.314;2023-02-21T06:14:35;97003.38;;;2.37;71.51
42771;BME280;28426;42.872;25.314;2023-02-21T06:17:06;96999.50;;;2.41;71.31
42771;BME280;28426;42.872;25.314;2023-02-21T06:19:36;97000.91;;;2.45;71.18
42771;BME280;28426;42.872;25.314;2023-02-21T06:22:07;96997.88;;;2.50;70.90
42771;BME280;28426;42.872;25.314;2023-02-21T06:24:37;97000.91;;;2.55;71.08
42771;BME280;28426;42.872;25.314;2023-02-21T06:27:11;96996.78;;;2.62;70.78
42771;BME280;28426;42.872;25.314;2023-02-21T06:29:42;96997.19;;;2.67;70.62
42771;BME280;28426;42.872;25.314;2023-02-21T06:32:12;97002.63;;;2.76;70.91
42771;BME280;28426;42.872;25.314;2023-02-21T06:34:43;97000.09;;;2.84;70.74
42771;BME280;28426;42.872;25.314;2023-02-21T06:37:13;96996.91;;;2.90;70.44
42771;BME280;28426;42.872;25.314;2023-02-21T06:39:46;96995.38;;;2.97;70.49
42771;BME280;28426;42.872;25.314;2023-02-21T06:42:19;96993.84;;;3.05;70.72
42771;BME280;28426;42.872;25.314;2023-02-21T06:44:50;96989.84;;;3.10;70.29
42771;BME280;28426;42.872;25.314;2023-02-21T06:47:21;96986.47;;;3.18;70.01
42771;BME280;28426;42.872;25.314;2023-02-21T06:49:51;96997.97;;;3.27;69.56
42771;BME280;28426;42.872;25.314;2023-02-21T06:52:22;97000.06;;;3.33;68.94
42771;BME280;28426;42.872;25.314;2023-02-21T06:54:53;96995.72;;;3.42;68.70
42771;BME280;28426;42.872;25.314;2023-02-21T06:57:26;97000.00;;;3.53;68.88
42771;BME280;28426;42.872;25.314;2023-02-21T06:59:56;97003.03;;;3.68;68.95
42771;BME280;28426;42.872;25.314;2023-02-21T07:02:31;97008.81;;;3.82;69.03
42771;BME280;28426;42.872;25.314;2023-02-21T07:05:01;97003.75;;;3.98;68.92
42771;BME280;28426;42.872;25.314;2023-02-21T07:07:32;96995.88;;;4.16;68.91
42771;BME280;28426;42.872;25.314;2023-02-21T07:10:03;97004.84;;;4.34;68.49
42771;BME280;28426;42.872;25.314;2023-02-21T07:12:36;97002.66;;;4.47;68.49
42771;BME280;28426;42.872;25.314;2023-02-21T07:15:07;96991.22;;;4.56;68.24
42771;BME280;28426;42.872;25.314;2023-02-21T07:17:38;96996.41;;;4.66;67.70
42771;BME280;28426;42.872;25.314;2023-02-21T07:20:09;96987.88;;;4.73;67.35
42771;BME280;28426;42.872;25.314;2023-02-21T07:22:40;96978.13;;;4.73;67.32
42771;BME280;28426;42.872;25.314;2023-02-21T07:25:14;96990.00;;;4.87;67.18
42771;BME280;28426;42.872;25.314;2023-02-21T07:27:49;96990.88;;;4.96;66.88
42771;BME280;28426;42.872;25.314;2023-02-21T07:30:20;96988.03;;;5.07;66.81
42771;BME280;28426;42.872;25.314;2023-02-21T07:32:50;96972.88;;;5.18;67.03
42771;BME280;28426;42.872;25.314;2023-02-21T07:35:20;96984.56;;;5.33;66.79
42771;BME280;28426;42.872;25.314;2023-02-21T07:37:50;96977.72;;;5.49;66.85
42771;BME280;28426;42.872;25.314;2023-02-21T07:40:21;96975.19;;;5.66;67.00
42771;BME280;28426;42.872;25.314;2023-02-21T07:42:54;96977.44;;;5.87;66.67
42771;BME280;28426;42.872;25.314;2023-02-21T07:45:25;96974.56;;;6.07;66.66
42771;BME280;28426;42.872;25.314;2023-02-21T07:47:55;96964.22;;;6.30;66.14
42771;BME280;28426;42.872;25.314;2023-02-21T07:50:26;96964.63;;;6.60;66.12
42771;BME280;28426;42.872;25.314;2023-02-21T07:52:56;96961.66;;;6.97;66.40
42771;BME280;28426;42.872;25.314;2023-02-21T07:55:27;96962.31;;;7.40;66.18
42771;BME280;28426;42.872;25.314;2023-02-21T07:58:00;96959.38;;;7.92;65.63
42771;BME280;28426;42.872;25.314;2023-02-21T08:00:31;96962.13;;;8.38;65.17
42771;BME280;28426;42.872;25.314;2023-02-21T08:03:04;96969.75;;;8.73;63.37
42771;BME280;28426;42.872;25.314;2023-02-21T08:05:34;96955.91;;;9.01;62.45
42771;BME280;28426;42.872;25.314;2023-02-21T08:08:06;96957.72;;;9.24;61.33
42771;BME280;28426;42.872;25.314;2023-02-21T08:10:37;96966.41;;;9.41;60.12
42771;BME280;28426;42.872;25.314;2023-02-21T08:13:11;96964.13;;;9.53;59.53
42771;BME280;28426;42.872;25.314;2023-02-21T08:15:42;96961.56;;;9.60;58.71
42771;BME280;28426;42.872;25.314;2023-02-21T08:18:15;96954.59;;;9.59;57.97
42771;BME280;28426;42.872;25.314;2023-02-21T08:20:50;96962.09;;;9.55;57.10
42771;BME280;28426;42.872;25.314;2023-02-21T08:23:22;96965.84;;;9.46;56.68
42771;BME280;28426;42.872;25.314;2023-02-21T08:25:52;96961.97;;;9.34;56.25
42771;BME280;28426;42.872;25.314;2023-02-21T08:28:26;96961.75;;;9.20;56.18
42771;BME280;28426;42.872;25.314;2023-02-21T08:30:56;96958.69;;;9.08;56.02
42771;BME280;28426;42.872;25.314;2023-02-21T08:33:27;96959.66;;;8.92;55.86
42771;BME280;28426;42.872;25.314;2023-02-21T08:35:58;96958.59;;;8.78;55.87
42771;BME280;28426;42.872;25.314;2023-02-21T08:38:28;96954.88;;;8.64;55.90
42771;BME280;28426;42.872;25.314;2023-02-21T08:40:59;96951.94;;;8.50;56.30
42771;BME280;28426;42.872;25.314;2023-02-21T08:43:33;96957.63;;;8.39;56.57
42771;BME280;28426;42.872;25.314;2023-02-21T08:46:04;96946.56;;;8.27;56.37
42771;BME280;28426;42.872;25.314;2023-02-21T08:48:35;96946.44;;;8.20;56.69
42771;BME280;28426;42.872;25.314;2023-02-21T08:51:06;96947.13;;;8.14;57.17
42771;BME280;28426;42.872;25.314;2023-02-21T08:53:36;96943.16;;;8.10;57.03
42771;BME280;28426;42.872;25.314;2023-02-21T08:56:07;96945.34;;;8.06;57.14
42771;BME280;28426;42.872;25.314;2023-02-21T08:58:40;96937.25;;;8.00;57.75
42771;BME280;28426;42.872;25.314;2023-02-21T09:01:11;96943.88;;;8.04;57.85
42771;BME280;28426;42.872;25.314;2023-02-21T09:03:42;96929.75;;;8.03;57.91
42771;BME280;28426;42.872;25.314;2023-02-21T09:06:13;96939.38;;;8.04;57.99
42771;BME280;28426;42.872;25.314;2023-02-21T09:08:44;96935.91;;;8.04;58.12
42771;BME280;28426;42.872;25.314;2023-02-21T09:11:15;96929.56;;;8.05;58.37
42771;BME280;28426;42.872;25.314;2023-02-21T09:13:48;96924.09;;;8.06;58.01
42771;BME280;28426;42.872;25.314;2023-02-21T09:16:19;96925.75;;;8.07;58.13
42771;BME280;28426;42.872;25.314;2023-02-21T09:18:54;96927.06;;;8.11;58.02
42771;BME280;28426;42.872;25.314;2023-02-21T09:21:26;96925.88;;;8.14;58.04
42771;BME280;28426;42.872;25.314;2023-02-21T09:23:56;96914.91;;;8.17;58.05
42771;BME280;28426;42.872;25.314;2023-02-21T09:26:29;96912.03;;;8.19;57.58
42771;BME280;28426;42.872;25.314;2023-02-21T09:29:03;96914.19;;;8.23;57.33
42771;BME280;28426;42.872;25.314;2023-02-21T09:31:34;96911.84;;;8.29;57.69
42771;BME280;28426;42.872;25.314;2023-02-21T09:34:04;96915.63;;;8.34;57.89
42771;BME280;28426;42.872;25.314;2023-02-21T09:36:35;96912.44;;;8.39;57.46
42771;BME280;28426;42.872;25.314;2023-02-21T09:39:06;96902.28;;;8.43;57.34
42771;BME280;28426;42.872;25.314;2023-02-21T09:41:37;96905.25;;;8.48;57.06
42771;BME280;28426;42.872;25.314;2023-02-21T09:44:15;96912.53;;;8.54;57.05
42771;BME280;28426;42.872;25.314;2023-02-21T09:46:48;96912.03;;;8.59;56.24
42771;BME280;28426;42.872;25.314;2023-02-21T09:49:22;96909.13;;;8.69;55.34
42771;BME280;28426;42.872;25.314;2023-02-21T09:51:54;96911.53;;;8.79;55.39
42771;BME280;28426;42.872;25.314;2023-02-21T09:54:29;96899.63;;;8.89;55.40
42771;BME280;28426;42.872;25.314;2023-02-21T09:57:03;96903.53;;;9.02;55.31
42771;BME280;28426;42.872;25.314;2023-02-21T09:59:38;96891.63;;;9.13;55.25
42771;BME280;28426;42.872;25.314;2023-02-21T10:02:23;96897.50;;;9.23;54.98
42771;BME280;28426;42.872;25.314;2023-02-21T10:05:03;96894.41;;;9.35;54.56
42771;BME280;28426;42.872;25.314;2023-02-21T10:07:41;96889.63;;;9.45;54.16
42771;BME280;28426;42.872;25.314;2023-02-21T10:10:17;96879.25;;;9.50;54.08
42771;BME280;28426;42.872;25.314;2023-02-21T10:12:54;96884.13;;;9.62;53.38
42771;BME280;28426;42.872;25.314;2023-02-21T10:15:41;96868.69;;;9.72;52.76
42771;BME280;28426;42.872;25.314;2023-02-21T10:18:21;96870.22;;;9.81;53.05
42771;BME280;28426;42.872;25.314;2023-02-21T10:20:57;96868.56;;;9.96;52.57
42771;BME280;28426;42.872;25.314;2023-02-21T10:23:36;96863.81;;;10.13;50.39
42771;BME280;28426;42.872;25.314;2023-02-21T10:26:09;96854.00;;;10.35;47.43
42771;BME280;28426;42.872;25.314;2023-02-21T10:28:40;96868.34;;;10.71;45.86
42771;BME280;28426;42.872;25.314;2023-02-21T10:31:17;96851.97;;;11.09;45.33
42771;BME280;28426;42.872;25.314;2023-02-21T10:33:48;96847.31;;;11.47;45.76
42771;BME280;28426;42.872;25.314;2023-02-21T10:36:21;96842.72;;;11.83;43.75
42771;BME280;28426;42.872;25.314;2023-02-21T10:38:55;96836.72;;;12.16;43.16
42771;BME280;28426;42.872;25.314;2023-02-21T10:41:28;96832.03;;;12.52;41.26
42771;BME280;28426;42.872;25.314;2023-02-21T10:44:03;96825.66;;;12.80;41.53
42771;BME280;28426;42.872;25.314;2023-02-21T10:46:43;96813.50;;;13.11;40.96
42771;BME280;28426;42.872;25.314;2023-02-21T10:49:23;96809.69;;;13.46;39.77
42771;BME280;28426;42.872;25.314;2023-02-21T10:52:09;96786.94;;;13.76;38.17
42771;BME280;28426;42.872;25.314;2023-02-21T10:54:40;96792.72;;;14.18;37.75
42771;BME280;28426;42.872;25.314;2023-02-21T10:57:12;96781.13;;;14.50;36.73
42771;BME280;28426;42.872;25.314;2023-02-21T10:59:45;96783.56;;;14.84;34.17
42771;BME280;28426;42.872;25.314;2023-02-21T11:02:29;96752.88;;;15.17;34.42
42771;BME280;28426;42.872;25.314;2023-02-21T11:05:12;96771.69;;;15.54;35.12
42771;BME280;28426;42.872;25.314;2023-02-21T11:07:56;96760.28;;;15.90;34.63
42771;BME280;28426;42.872;25.314;2023-02-21T11:10:30;96742.84;;;16.23;35.13
42771;BME280;28426;42.872;25.314;2023-02-21T11:13:13;96740.56;;;16.51;33.48
42771;BME280;28426;42.872;25.314;2023-02-21T11:15:44;96729.13;;;16.79;33.96
42771;BME280;28426;42.872;25.314;2023-02-21T11:18:21;96723.72;;;17.03;30.65
42771;BME280;28426;42.872;25.314;2023-02-21T11:20:53;96724.66;;;17.21;32.15
42771;BME280;28426;42.872;25.314;2023-02-21T11:23:25;96713.75;;;17.28;31.38
42771;BME280;28426;42.872;25.314;2023-02-21T11:25:59;96719.69;;;17.42;31.60
42771;BME280;28426;42.872;25.314;2023-02-21T11:28:36;96712.31;;;17.37;31.19
42771;BME280;28426;42.872;25.314;2023-02-21T11:31:14;96712.28;;;17.49;27.00
42771;BME280;28426;42.872;25.314;2023-02-21T11:33:55;96697.72;;;17.50;28.00
42771;BME280;28426;42.872;25.314;2023-02-21T11:36:28;96699.84;;;17.48;27.76
42771;BME280;28426;42.872;25.314;2023-02-21T11:39:02;96692.22;;;17.45;28.94
42771;BME280;28426;42.872;25.314;2023-02-21T11:41:43;96698.69;;;17.44;28.14
42771;BME280;28426;42.872;25.314;2023-02-21T11:44:30;96681.94;;;17.42;27.64
42771;BME280;28426;42.872;25.314;2023-02-21T11:47:08;96687.47;;;17.35;28.11
42771;BME280;28426;42.872;25.314;2023-02-21T11:49:55;96690.97;;;17.35;27.09
42771;BME280;28426;42.872;25.314;2023-02-21T11:52:35;96680.66;;;17.32;27.41
42771;BME280;28426;42.872;25.314;2023-02-21T11:55:13;96683.72;;;17.36;27.86
42771;BME280;28426;42.872;25.314;2023-02-21T11:57:49;96692.38;;;17.38;27.87
42771;BME280;28426;42.872;25.314;2023-02-21T12:00:25;96689.44;;;17.39;28.55
42771;BME280;28426;42.872;25.314;2023-02-21T12:03:27;96680.78;;;17.37;25.48
42771;BME280;28426;42.872;25.314;2023-02-21T12:06:12;96674.88;;;17.41;24.87
42771;BME280;28426;42.872;25.314;2023-02-21T12:08:51;96691.28;;;17.51;26.61
42771;BME280;28426;42.872;25.314;2023-02-21T12:11:40;96687.72;;;17.62;26.89
42771;BME280;28426;42.872;25.314;2023-02-21T12:14:35;96679.47;;;17.69;25.87
42771;BME280;28426;42.872;25.314;2023-02-21T12:17:27;96673.31;;;17.86;26.20
42771;BME280;28426;42.872;25.314;2023-02-21T12:20:27;96677.00;;;17.97;26.99
42771;BME280;28426;42.872;25.314;2023-02-21T12:23:12;96676.34;;;18.07;25.77
42771;BME280;28426;42.872;25.314;2023-02-21T12:25:59;96678.91;;;18.13;26.31
42771;BME280;28426;42.872;25.314;2023-02-21T12:28:45;96679.34;;;18.22;25.19
42771;BME280;28426;42.872;25.314;2023-02-21T12:31:31;96678.09;;;18.30;25.91
42771;BME280;28426;42.872;25.314;2023-02-21T12:34:11;96679.75;;;18.31;26.82
42771;BME280;28426;42.872;25.314;2023-02-21T12:36:55;96668.38;;;18.29;25.51
42771;BME280;28426;42.872;25.314;2023-02-21T12:39:53;96670.25;;;18.28;24.67
42771;BME280;28426;42.872;25.314;2023-02-21T12:42:42;96665.09;;;18.27;23.67
42771;BME280;28426;42.872;25.314;2023-02-21T12:45:30;96676.63;;;18.22;24.88
42771;BME280;28426;42.872;25.314;2023-02-21T12:48:14;96658.13;;;18.14;23.75
42771;BME280;28426;42.872;25.314;2023-02-21T12:50:49;96653.94;;;18.06;25.08
42771;BME280;28426;42.872;25.314;2023-02-21T12:53:29;96647.53;;;17.95;25.26
42771;BME280;28426;42.872;25.314;2023-02-21T12:56:09;96648.78;;;17.87;24.85
42771;BME280;28426;42.872;25.314;2023-02-21T12:58:43;96648.34;;;17.78;24.89
42771;BME280;28426;42.872;25.314;2023-02-21T13:01:19;96653.09;;;17.71;25.30
42771;BME280;28426;42.872;25.314;2023-02-21T13:03:55;96639.47;;;17.66;24.81
42771;BME280;28426;42.872;25.314;2023-02-21T13:06:33;96635.88;;;17.60;24.83
42771;BME280;28426;42.872;25.314;2023-02-21T13:09:14;96638.50;;;17.55;25.52
42771;BME280;28426;42.872;25.314;2023-02-21T13:11:57;96643.53;;;17.51;25.47
42771;BME280;28426;42.872;25.314;2023-02-21T13:14:38;96643.44;;;17.46;25.45
42771;BME280;28426;42.872;25.314;2023-02-21T13:17:11;96638.19;;;17.39;25.76
42771;BME280;28426;42.872;25.314;2023-02-21T13:19:46;96637.63;;;17.37;25.88
42771;BME280;28426;42.872;25.314;2023-02-21T13:26:02;96645.16;;;17.23;25.78
42771;BME280;28426;42.872;25.314;2023-02-21T13:28:42;96638.84;;;17.18;25.60
42771;BME280;28426;42.872;25.314;2023-02-21T13:31:19;96638.75;;;17.12;26.10
42771;BME280;28426;42.872;25.314;2023-02-21T13:33:52;96640.28;;;17.08;26.52
42771;BME280;28426;42.872;25.314;2023-02-21T13:36:27;96639.59;;;17.01;26.34
42771;BME280;28426;42.872;25.314;2023-02-21T13:39:02;96638.41;;;16.97;26.42
42771;BME280;28426;42.872;25.314;2023-02-21T13:41:36;96633.72;;;16.92;26.56
42771;BME280;28426;42.872;25.314;2023-02-21T13:44:18;96626.84;;;16.84;26.65
42771;BME280;28426;42.872;25.314;2023-02-21T13:47:05;96626.72;;;16.79;26.65
42771;BME280;28426;42.872;25.314;2023-02-21T13:49:45;96612.91;;;16.64;26.47
42771;BME280;28426;42.872;25.314;2023-02-21T13:52:34;96622.75;;;16.70;26.82
42771;BME280;28426;42.872;25.314;2023-02-21T13:58:30;96629.56;;;16.60;26.29
42771;BME280;28426;42.872;25.314;2023-02-21T14:01:38;96627.56;;;16.56;26.09